Time;durP1;ratioP1;P1;durP2;ratioP2;P2;SDS_P1;SDS_P2;PMS_P1;PMS_P2;Temp;Humidity;BMP_temperature;BMP_pressure;BME280_temperature;BME280_humidity;BME280_pressure;Samples;Min_cycle;Max_cycle;Signal;HPM_P1;HPM_P2
2022/12/27 00:01:28;;;;;;;0.40;0.40;;;14.60;91.90;;;;;;5035492;28;20202;-70
2022/12/27 00:04:16;;;;;;;0.40;0.40;;;14.60;91.70;;;;;;5036014;28;20607;-69
2022/12/27 00:07:04;;;;;;;0.40;0.40;;;14.60;91.70;;;;;;5035630;28;20620;-69
2022/12/27 00:09:54;;;;;;;0.40;0.40;;;14.60;92.00;;;;;;5035656;28;20229;-69
2022/12/27 00:12:43;;;;;;;0.40;0.40;;;14.60;91.80;;;;;;5035993;28;20296;-70
2022/12/27 00:15:33;;;;;;;0.40;0.40;;;14.60;91.90;;;;;;5036175;28;20491;-69
2022/12/27 00:18:21;;;;;;;0.40;0.40;;;14.60;91.70;;;;;;5035456;28;20729;-68
2022/12/27 00:21:11;;;;;;;0.40;0.40;;;14.60;91.80;;;;;;5035693;28;20437;-69
2022/12/27 00:24:00;;;;;;;0.40;0.40;;;14.60;91.90;;;;;;5033990;28;20535;-69
2022/12/27 00:26:48;;;;;;;0.40;0.40;;;14.60;91.60;;;;;;5035751;28;20339;-69
2022/12/27 00:29:37;;;;;;;0.40;0.40;;;14.50;91.70;;;;;;5034707;28;20230;-70
2022/12/27 00:32:26;;;;;;;0.40;0.40;;;14.50;91.40;;;;;;5033558;28;20206;-69
2022/12/27 00:35:14;;;;;;;0.40;0.40;;;14.50;91.50;;;;;;5074694;23;20609;-65
2022/12/27 00:38:02;;;;;;;0.40;0.40;;;14.10;91.50;;;;;;5051592;28;20424;-65
2022/12/27 00:40:50;;;;;;;0.40;0.40;;;14.60;92.00;;;;;;5053156;28;20289;-65
2022/12/27 00:43:38;;;;;;;0.40;0.40;;;14.60;91.90;;;;;;5052550;28;20547;-66
2022/12/27 00:46:27;;;;;;;0.40;0.40;;;14.60;91.80;;;;;;5051737;28;20280;-65
2022/12/27 00:49:15;;;;;;;0.40;0.40;;;14.60;92.00;;;;;;5051042;28;20420;-65
2022/12/27 00:52:04;;;;;;;0.40;0.40;;;14.60;91.90;;;;;;5052112;28;20196;-65
2022/12/27 00:54:52;;;;;;;0.40;0.40;;;14.60;91.70;;;;;;5051821;28;20518;-65
2022/12/27 00:57:40;;;;;;;0.40;0.40;;;14.70;92.00;;;;;;5051821;28;20510;-65
2022/12/27 01:00:28;;;;;;;0.40;0.40;;;14.70;91.80;;;;;;5051392;28;20210;-65
2022/12/27 01:03:19;;;;;;;0.40;0.40;;;14.70;91.70;;;;;;5051245;28;20424;-65
2022/12/27 01:06:09;;;;;;;0.40;0.40;;;14.70;91.80;;;;;;5051247;28;20516;-65
2022/12/27 01:08:57;;;;;;;0.40;0.40;;;14.70;91.80;;;;;;5053870;28;20247;-66
2022/12/27 01:11:45;;;;;;;0.40;0.40;;;14.70;91.50;;;;;;5056038;28;20267;-66
2022/12/27 01:14:33;;;;;;;0.40;0.40;;;14.70;91.80;;;;;;5055117;28;20247;-65
2022/12/27 01:17:21;;;;;;;0.40;0.40;;;14.70;91.80;;;;;;5055025;28;20244;-66
2022/12/27 01:20:11;;;;;;;0.40;0.40;;;14.70;91.80;;;;;;5054871;28;20236;-65
2022/12/27 01:22:59;;;;;;;0.40;0.40;;;14.70;91.80;;;;;;5055147;28;20289;-65
2022/12/27 01:25:47;;;;;;;0.40;0.40;;;14.70;91.60;;;;;;5055026;28;20283;-65
2022/12/27 01:28:35;;;;;;;0.40;0.40;;;14.70;91.70;;;;;;5054911;28;20278;-66
2022/12/27 01:31:26;;;;;;;0.40;0.40;;;14.70;91.80;;;;;;5055216;28;20319;-66
2022/12/27 01:34:14;;;;;;;0.40;0.40;;;14.60;91.60;;;;;;5054359;28;20233;-65
2022/12/27 01:37:04;;;;;;;0.40;0.40;;;14.60;91.60;;;;;;5054783;28;20217;-66
2022/12/27 01:39:52;;;;;;;0.40;0.40;;;14.60;91.50;;;;;;5055718;28;20632;-66
2022/12/27 01:42:51;;;;;;;0.40;0.40;;;14.60;91.50;;;;;;5054629;28;20651;-66
2022/12/27 01:45:39;;;;;;;0.40;0.40;;;14.60;91.60;;;;;;5055442;28;20205;-66
2022/12/27 01:48:27;;;;;;;0.40;0.40;;;14.60;91.60;;;;;;5054729;28;20197;-65
2022/12/27 01:51:16;;;;;;;0.40;0.40;;;14.50;91.40;;;;;;5054072;28;20205;-65
2022/12/27 01:54:06;;;;;;;0.40;0.40;;;14.50;91.50;;;;;;5054468;28;20303;-66
2022/12/27 01:56:55;;;;;;;0.40;0.40;;;14.50;91.40;;;;;;5054488;28;20545;-65
2022/12/27 01:59:43;;;;;;;0.40;0.40;;;14.50;91.50;;;;;;5054682;28;21007;-66
2022/12/27 02:02:32;;;;;;;0.40;0.40;;;14.50;91.50;;;;;;5054195;28;20201;-66
2022/12/27 02:05:22;;;;;;;0.40;0.40;;;14.50;91.50;;;;;;5054372;28;20539;-65
2022/12/27 02:08:23;;;;;;;0.40;0.40;;;14.50;91.50;;;;;;5055522;28;20304;-66
2022/12/27 02:11:13;;;;;;;0.40;0.40;;;14.50;91.70;;;;;;5053734;28;20196;-66
2022/12/27 02:14:01;;;;;;;0.40;0.40;;;14.40;91.40;;;;;;5053957;28;20232;-65
2022/12/27 02:16:50;;;;;;;0.40;0.40;;;14.50;91.80;;;;;;5054958;28;20221;-65
2022/12/27 02:19:48;;;;;;;0.40;0.40;;;14.50;91.80;;;;;;5054053;28;20431;-65
2022/12/27 02:26:44;;;;;;;0.40;0.40;;;14.50;91.70;;;;;;5055043;28;20201;-65
2022/12/27 02:29:52;;;;;;;0.40;0.40;;;14.60;91.70;;;;;;5054194;28;20205;-65
2022/12/27 02:32:44;;;;;;;0.40;0.40;;;14.60;91.70;;;;;;5053959;28;20205;-66
2022/12/27 02:35:37;;;;;;;0.40;0.40;;;14.50;91.50;;;;;;5054362;28;20280;-65
2022/12/27 02:38:30;;;;;;;0.40;0.40;;;14.60;91.60;;;;;;5054147;28;21042;-65
2022/12/27 02:54:02;;;;;;;0.40;0.40;;;14.50;91.50;;;;;;5054626;28;20281;-65
2022/12/27 02:57:08;;;;;;;0.40;0.40;;;14.50;91.30;;;;;;5049612;28;20221;-65
2022/12/27 03:03:33;;;;;;;0.40;0.40;;;14.40;91.00;;;;;;5052829;28;20235;-66
2022/12/27 03:06:44;;;;;;;0.40;0.40;;;14.40;91.20;;;;;;5053797;28;20737;-66
2022/12/27 03:16:22;;;;;;;0.40;0.40;;;14.40;91.20;;;;;;5054819;28;20225;-65
2022/12/27 03:25:26;;;;;;;0.40;0.40;;;14.40;90.90;;;;;;5053217;28;20693;-65
2022/12/27 03:25:33;;;;;;;0.40;0.40;;;14.40;91.20;;;;;;5053845;28;20623;-66
2022/12/27 03:34:50;;;;;;;0.40;0.40;;;14.30;91.10;;;;;;5053722;28;20643;-66
2022/12/27 03:44:23;;;;;;;0.40;0.40;;;14.30;91.10;;;;;;5031357;28;20284;-66
2022/12/27 03:47:17;;;;;;;0.40;0.40;;;14.30;91.20;;;;;;5030599;28;20202;-65
2022/12/27 03:50:11;;;;;;;0.40;0.40;;;14.30;91.10;;;;;;5053271;28;20201;-65
2022/12/27 03:53:06;;;;;;;0.40;0.40;;;14.30;91.40;;;;;;5053117;28;20239;-65
2022/12/27 03:55:55;;;;;;;0.40;0.40;;;14.30;91.20;;;;;;5052298;28;20256;-65
2022/12/27 03:58:43;;;;;;;0.40;0.40;;;14.40;91.40;;;;;;5052250;28;20220;-65
2022/12/27 04:01:31;;;;;;;0.40;0.40;;;14.40;91.00;;;;;;5052906;28;20607;-65
2022/12/27 04:04:19;;;;;;;0.40;0.40;;;14.40;91.40;;;;;;5053014;28;20451;-65
2022/12/27 04:07:10;;;;;;;0.40;0.40;;;14.40;91.20;;;;;;5053341;28;20279;-65
2022/12/27 04:34:45;;;;;;;0.40;0.40;;;14.30;91.10;;;;;;5052779;28;20321;-65
2022/12/27 04:37:34;;;;;;;0.40;0.40;;;14.30;91.00;;;;;;5052425;28;20691;-65
2022/12/27 04:55:53;;;;;;;0.40;0.40;;;14.30;90.90;;;;;;5052250;28;20232;-65
2022/12/27 05:02:01;;;;;;;0.40;0.40;;;14.30;90.90;;;;;;5052513;28;20371;-66
2022/12/27 05:02:03;;;;;;;0.40;0.40;;;14.30;90.80;;;;;;5051151;28;20691;-66
2022/12/27 05:04:51;;;;;;;0.40;0.40;;;14.30;91.10;;;;;;5051581;28;20224;-65
2022/12/27 05:14:09;;;;;;;0.40;0.40;;;14.30;91.00;;;;;;5010284;28;20453;-65
2022/12/27 05:16:57;;;;;;;0.40;0.40;;;14.40;91.00;;;;;;5051359;28;20212;-66
2022/12/27 05:19:45;;;;;;;0.40;0.40;;;14.40;90.90;;;;;;5050248;28;20507;-65
2022/12/27 05:25:40;;;;;;;0.40;0.40;;;14.40;90.90;;;;;;5051647;28;20458;-66
2022/12/27 05:28:30;;;;;;;0.40;0.40;;;14.40;90.60;;;;;;5052002;28;20486;-65
2022/12/27 05:31:18;;;;;;;0.40;0.40;;;14.40;90.80;;;;;;5051658;28;20208;-66
2022/12/27 05:34:06;;;;;;;0.40;0.40;;;14.40;90.80;;;;;;5051958;28;20663;-65
2022/12/27 05:36:54;;;;;;;0.70;0.70;;;14.30;90.60;;;;;;5051793;28;20205;-65
2022/12/27 05:39:43;;;;;;;0.40;0.40;;;14.30;90.90;;;;;;5050900;28;20561;-65
2022/12/27 05:42:31;;;;;;;0.40;0.40;;;14.30;90.80;;;;;;5051681;28;20798;-65
2022/12/27 05:45:20;;;;;;;0.40;0.40;;;14.30;90.80;;;;;;5050998;28;20222;-66
2022/12/27 05:48:08;;;;;;;0.40;0.40;;;14.20;90.60;;;;;;5050201;28;20200;-65
2022/12/27 05:50:56;;;;;;;2.00;1.90;;;14.20;90.50;;;;;;5050681;28;20198;-65
2022/12/27 05:53:45;;;;;;;0.40;0.40;;;14.20;90.50;;;;;;5050218;28;20253;-65
2022/12/27 05:56:36;;;;;;;0.40;0.40;;;14.20;90.60;;;;;;5054217;28;20204;-65
2022/12/27 05:59:24;;;;;;;0.40;0.40;;;14.20;90.60;;;;;;5054209;28;20224;-65
2022/12/27 06:02:13;;;;;;;0.40;0.40;;;14.20;90.50;;;;;;5054995;28;20219;-65
2022/12/27 06:05:01;;;;;;;0.40;0.40;;;14.20;90.60;;;;;;5053917;28;20219;-65
2022/12/27 06:07:49;;;;;;;0.40;0.40;;;14.20;90.70;;;;;;5054717;28;20283;-66
2022/12/27 06:10:38;;;;;;;0.40;0.40;;;14.20;90.60;;;;;;5054928;28;20448;-65
2022/12/27 06:13:26;;;;;;;0.40;0.40;;;14.20;90.60;;;;;;5053023;28;20598;-66
2022/12/27 06:16:14;;;;;;;0.40;0.40;;;14.20;90.70;;;;;;5054844;28;20205;-65
2022/12/27 06:19:03;;;;;;;0.40;0.40;;;14.20;90.80;;;;;;5054509;28;20224;-65
2022/12/27 06:21:51;;;;;;;0.40;0.40;;;14.20;90.70;;;;;;5054447;28;20696;-65
2022/12/27 06:24:39;;;;;;;0.40;0.40;;;14.20;90.90;;;;;;5053861;28;20271;-65
2022/12/27 06:27:27;;;;;;;0.40;0.40;;;14.20;90.80;;;;;;5055012;28;20216;-65
2022/12/27 06:30:16;;;;;;;0.40;0.40;;;14.30;90.90;;;;;;5052981;28;20424;-65
2022/12/27 06:33:04;;;;;;;0.40;0.40;;;14.30;90.70;;;;;;5053246;28;20205;-65
2022/12/27 06:35:53;;;;;;;0.40;0.40;;;14.30;90.40;;;;;;5055396;28;20201;-65
2022/12/27 06:38:42;;;;;;;0.40;0.40;;;14.30;90.60;;;;;;5062019;28;20213;-65
2022/12/27 06:41:30;;;;;;;0.40;0.40;;;14.30;90.80;;;;;;5068111;28;20255;-65
2022/12/27 06:44:18;;;;;;;0.40;0.40;;;14.40;90.80;;;;;;5069105;28;20229;-65
2022/12/27 06:47:06;;;;;;;0.40;0.40;;;14.30;90.60;;;;;;5060769;28;20420;-65
2022/12/27 06:49:55;;;;;;;0.40;0.40;;;14.30;90.60;;;;;;5054475;28;20507;-65
2022/12/27 06:52:46;;;;;;;0.40;0.40;;;14.30;90.60;;;;;;5054721;28;20208;-65
2022/12/27 06:55:34;;;;;;;0.40;0.40;;;14.30;90.30;;;;;;5055130;28;20327;-65
2022/12/27 06:58:22;;;;;;;0.40;0.40;;;14.30;90.40;;;;;;5054543;28;20208;-65
2022/12/27 07:01:11;;;;;;;0.40;0.40;;;14.30;90.20;;;;;;5052884;28;20423;-65
2022/12/27 07:04:00;;;;;;;0.40;0.40;;;14.20;90.20;;;;;;5054889;28;20222;-65
2022/12/27 07:06:48;;;;;;;0.40;0.40;;;14.20;90.10;;;;;;5053459;28;20237;-65
2022/12/27 07:09:37;;;;;;;0.40;0.40;;;14.30;90.00;;;;;;5053647;28;20417;-65
2022/12/27 07:12:25;;;;;;;0.40;0.40;;;14.20;90.10;;;;;;5054309;28;20554;-65
2022/12/27 07:15:20;;;;;;;0.40;0.40;;;14.20;90.10;;;;;;5053388;28;20218;-65
2022/12/27 07:18:08;;;;;;;0.40;0.40;;;14.20;90.10;;;;;;5053779;28;20454;-65
2022/12/27 07:20:56;;;;;;;0.40;0.40;;;14.20;90.10;;;;;;5052768;28;20666;-65
2022/12/27 07:23:44;;;;;;;0.40;0.40;;;14.20;90.20;;;;;;5053157;28;20887;-65
2022/12/27 07:26:33;;;;;;;0.40;0.40;;;14.20;90.00;;;;;;5052906;28;21021;-65
2022/12/27 07:29:22;;;;;;;0.40;0.40;;;14.20;90.00;;;;;;5052967;28;20420;-65
2022/12/27 07:32:10;;;;;;;0.40;0.40;;;14.10;90.10;;;;;;5052664;28;20517;-65
2022/12/27 07:34:58;;;;;;;0.40;0.40;;;14.10;89.70;;;;;;5051132;28;20452;-67
2022/12/27 07:37:46;;;;;;;0.40;0.40;;;14.10;89.90;;;;;;5053051;28;20204;-65
2022/12/27 07:40:36;;;;;;;0.40;0.40;;;14.10;90.00;;;;;;5051671;28;20633;-65
2022/12/27 07:43:25;;;;;;;0.40;0.40;;;14.10;90.00;;;;;;5053045;28;20294;-65
2022/12/27 07:46:16;;;;;;;0.40;0.40;;;14.10;90.20;;;;;;5053192;28;20201;-65
2022/12/27 07:49:04;;;;;;;0.40;0.40;;;14.10;90.00;;;;;;5053802;28;20828;-65
2022/12/27 07:51:52;;;;;;;0.40;0.40;;;14.10;89.70;;;;;;5052775;28;20842;-65
2022/12/27 07:54:41;;;;;;;0.40;0.40;;;14.10;89.90;;;;;;5052637;28;20217;-65
2022/12/27 07:57:29;;;;;;;0.40;0.40;;;14.10;90.20;;;;;;5052434;28;20421;-65
2022/12/27 08:00:19;;;;;;;0.40;0.40;;;14.10;90.30;;;;;;5051024;28;20259;-65
2022/12/27 08:03:07;;;;;;;0.40;0.40;;;14.10;90.00;;;;;;5051907;28;20512;-65
2022/12/27 08:05:55;;;;;;;0.40;0.40;;;14.20;90.30;;;;;;5051178;28;20205;-65
2022/12/27 08:08:44;;;;;;;0.40;0.40;;;14.10;90.10;;;;;;5052705;28;20285;-65
2022/12/27 08:11:32;;;;;;;0.40;0.40;;;14.20;90.40;;;;;;5050934;28;20276;-65
2022/12/27 08:14:20;;;;;;;0.40;0.40;;;14.20;90.40;;;;;;5051202;28;20225;-65
2022/12/27 08:17:16;;;;;;;0.40;0.40;;;14.20;90.20;;;;;;5052493;28;20701;-65
2022/12/27 08:20:05;;;;;;;0.40;0.40;;;14.20;90.10;;;;;;5051121;28;20231;-65
2022/12/27 08:22:53;;;;;;;0.40;0.40;;;14.20;90.40;;;;;;5053271;28;20243;-65
2022/12/27 08:25:41;;;;;;;0.40;0.40;;;14.20;90.20;;;;;;5051858;28;20201;-65
2022/12/27 08:28:36;;;;;;;0.40;0.40;;;14.20;90.30;;;;;;5051001;28;20439;-65
2022/12/27 08:31:24;;;;;;;0.40;0.40;;;14.20;90.20;;;;;;5052678;28;20693;-65
2022/12/27 08:34:13;;;;;;;0.40;0.40;;;14.20;90.00;;;;;;5050326;28;20272;-65
2022/12/27 08:37:01;;;;;;;0.40;0.40;;;14.30;90.40;;;;;;5051805;28;20959;-65
2022/12/27 08:39:49;;;;;;;0.40;0.40;;;14.30;90.30;;;;;;5051904;28;20456;-65
2022/12/27 08:42:37;;;;;;;0.40;0.40;;;14.30;90.10;;;;;;5050518;28;20204;-65
2022/12/27 08:45:26;;;;;;;0.40;0.40;;;14.30;89.90;;;;;;5053125;28;20297;-65
2022/12/27 08:48:14;;;;;;;0.40;0.40;;;14.30;90.10;;;;;;5050299;28;20420;-65
2022/12/27 08:51:05;;;;;;;0.40;0.40;;;14.30;89.80;;;;;;5050977;28;20209;-65
2022/12/27 08:54:00;;;;;;;0.40;0.40;;;14.30;89.00;;;;;;5052038;28;20611;-65
2022/12/27 08:56:49;;;;;;;0.40;0.40;;;14.30;89.90;;;;;;5052437;28;20201;-65
2022/12/27 08:59:37;;;;;;;0.40;0.40;;;14.30;89.90;;;;;;5050646;28;20359;-65
2022/12/27 09:02:26;;;;;;;0.40;0.40;;;14.30;90.00;;;;;;5051766;28;20280;-65
2022/12/27 09:05:14;;;;;;;0.40;0.40;;;15.10;90.30;;;;;;5051343;28;20852;-65
2022/12/27 09:08:04;;;;;;;0.40;0.40;;;14.30;90.10;;;;;;5052428;28;20432;-65
2022/12/27 09:10:52;;;;;;;0.40;0.40;;;14.30;89.40;;;;;;5051551;28;20323;-65
2022/12/27 09:13:40;;;;;;;0.40;0.40;;;14.30;89.00;;;;;;5052419;28;20217;-65
2022/12/27 09:16:29;;;;;;;0.40;0.40;;;14.30;89.50;;;;;;5052054;28;20280;-65
2022/12/27 09:19:17;;;;;;;0.40;0.40;;;14.30;89.50;;;;;;5051535;28;20201;-65
2022/12/27 09:22:05;;;;;;;0.40;0.40;;;14.30;89.30;;;;;;5051604;28;20304;-65
2022/12/27 09:24:55;;;;;;;0.40;0.40;;;14.30;89.40;;;;;;5052157;28;20976;-65
2022/12/27 09:27:43;;;;;;;0.40;0.40;;;14.30;89.90;;;;;;5051841;28;20228;-65
2022/12/27 09:30:31;;;;;;;0.40;0.40;;;14.30;90.00;;;;;;5051981;28;20208;-65
2022/12/27 09:33:19;;;;;;;0.40;0.40;;;14.20;94.20;;;;;;5055469;28;20224;-65
2022/12/27 09:36:10;;;;;;;0.40;0.40;;;14.20;89.40;;;;;;5056132;28;20519;-65
2022/12/27 09:38:59;;;;;;;0.40;0.40;;;14.20;89.60;;;;;;5055225;28;20465;-65
2022/12/27 09:41:55;;;;;;;0.40;0.40;;;14.20;89.70;;;;;;5055330;28;20287;-65
2022/12/27 09:45:08;;;;;;;0.40;0.40;;;14.20;89.60;;;;;;5054525;28;20224;-65
2022/12/27 09:48:01;;;;;;;0.40;0.40;;;14.20;89.10;;;;;;5054838;28;20236;-65
2022/12/27 09:50:52;;;;;;;0.40;0.40;;;14.30;89.70;;;;;;5055578;28;20478;-65
2022/12/27 09:53:45;;;;;;;0.40;0.40;;;14.30;89.40;;;;;;5054963;28;21009;-65
2022/12/27 09:56:35;;;;;;;0.40;0.40;;;14.30;89.40;;;;;;5054691;28;20438;-65
2022/12/27 09:59:49;;;;;;;0.40;0.40;;;14.20;90.10;;;;;;5055055;28;20201;-65
2022/12/27 10:02:37;;;;;;;0.40;0.40;;;14.30;89.90;;;;;;5054367;28;20277;-65
2022/12/27 10:05:32;;;;;;;0.40;0.40;;;14.30;90.00;;;;;;5054070;28;20990;-65
2022/12/27 10:08:31;;;;;;;0.40;0.40;;;14.30;89.90;;;;;;5053018;28;20599;-65
2022/12/27 10:11:37;;;;;;;0.40;0.40;;;14.40;90.10;;;;;;5054742;28;20286;-65
2022/12/27 10:14:37;;;;;;;0.40;0.40;;;14.40;90.00;;;;;;5054069;28;20295;-65
2022/12/27 10:17:39;;;;;;;0.40;0.40;;;14.40;90.00;;;;;;5055116;28;20416;-65
2022/12/27 10:20:36;;;;;;;0.40;0.40;;;14.40;89.70;;;;;;5054507;28;20698;-65
2022/12/27 10:23:26;;;;;;;0.40;0.40;;;14.40;89.10;;;;;;5054839;28;20424;-65
2022/12/27 10:26:17;;;;;;;0.40;0.40;;;14.50;89.50;;;;;;5055351;28;20271;-65
2022/12/27 10:29:20;;;;;;;0.40;0.40;;;14.50;89.40;;;;;;5055073;28;20233;-65
2022/12/27 10:32:12;;;;;;;0.40;0.40;;;14.50;89.20;;;;;;5054698;28;20583;-65
2022/12/27 10:35:03;;;;;;;0.40;0.40;;;14.50;89.30;;;;;;5054537;28;20308;-65
2022/12/27 10:37:52;;;;;;;0.40;0.40;;;14.50;89.40;;;;;;5055736;28;20468;-65
2022/12/27 10:40:48;;;;;;;0.40;0.40;;;14.50;89.20;;;;;;5053851;28;20217;-65
2022/12/27 10:43:41;;;;;;;0.40;0.40;;;14.50;89.30;;;;;;5055170;28;20279;-65
2022/12/27 10:46:31;;;;;;;0.50;0.50;;;14.50;89.50;;;;;;5055898;28;20197;-65
2022/12/27 10:49:24;;;;;;;0.40;0.40;;;14.50;89.40;;;;;;5059848;28;20201;-66
2022/12/27 10:52:19;;;;;;;0.40;0.40;;;14.50;89.60;;;;;;5068222;28;20285;-65
2022/12/27 10:55:32;;;;;;;0.40;0.40;;;14.50;89.50;;;;;;5068254;28;20460;-66
2022/12/27 10:58:36;;;;;;;0.40;0.40;;;14.50;89.40;;;;;;5058766;28;20288;-65
2022/12/27 11:01:26;;;;;;;0.40;0.40;;;14.50;89.30;;;;;;5054372;28;20296;-65
2022/12/27 11:04:18;;;;;;;0.40;0.40;;;14.50;89.30;;;;;;5054252;28;20225;-65
2022/12/27 11:07:15;;;;;;;0.40;0.40;;;14.50;89.40;;;;;;5053562;28;20212;-65
2022/12/27 11:10:15;;;;;;;0.40;0.40;;;14.50;89.20;;;;;;5038620;28;20627;-65
2022/12/27 11:13:07;;;;;;;0.40;0.40;;;14.50;89.20;;;;;;5054108;28;20193;-65
2022/12/27 11:15:56;;;;;;;0.40;0.40;;;14.50;89.00;;;;;;5053999;28;20205;-65
2022/12/27 11:18:50;;;;;;;0.40;0.40;;;14.50;89.20;;;;;;5053121;28;20260;-65
2022/12/27 11:21:39;;;;;;;0.40;0.40;;;14.50;89.10;;;;;;5052533;28;20720;-65
2022/12/27 11:24:28;;;;;;;0.40;0.40;;;14.50;89.50;;;;;;5053238;28;20259;-65
2022/12/27 11:27:23;;;;;;;0.40;0.40;;;14.50;88.70;;;;;;5053941;28;20228;-65
2022/12/27 11:30:22;;;;;;;0.40;0.40;;;14.50;89.20;;;;;;5053950;28;20310;-65
2022/12/27 11:33:18;;;;;;;0.40;0.40;;;14.50;89.30;;;;;;5053688;28;20204;-65
2022/12/27 11:36:14;;;;;;;0.40;0.40;;;14.50;89.00;;;;;;5053073;28;20323;-65
2022/12/27 11:39:02;;;;;;;0.40;0.40;;;14.50;89.20;;;;;;5052904;28;20703;-65
2022/12/27 11:41:54;;;;;;;0.40;0.40;;;14.50;88.80;;;;;;5052340;28;20716;-65
2022/12/27 11:44:48;;;;;;;0.40;0.40;;;14.50;88.80;;;;;;5053775;28;20547;-65
2022/12/27 11:47:41;;;;;;;0.40;0.40;;;14.50;88.90;;;;;;5052765;28;20470;-65
2022/12/27 11:50:51;;;;;;;0.40;0.40;;;14.50;89.00;;;;;;5052320;28;20205;-65
2022/12/27 11:54:00;;;;;;;0.40;0.40;;;14.50;88.70;;;;;;5053888;28;20224;-65
2022/12/27 11:56:52;;;;;;;0.40;0.40;;;14.40;89.40;;;;;;5053593;28;20290;-65
2022/12/27 11:59:53;;;;;;;0.40;0.40;;;14.40;88.80;;;;;;5052938;28;20201;-65
2022/12/27 12:02:55;;;;;;;0.40;0.40;;;14.40;88.80;;;;;;5051181;28;20693;-65
2022/12/27 12:06:01;;;;;;;0.40;0.40;;;14.40;89.10;;;;;;5053433;28;20547;-65
2022/12/27 12:09:18;;;;;;;0.40;0.40;;;14.40;89.20;;;;;;5051919;28;20775;-65
2022/12/27 12:12:36;;;;;;;0.40;0.40;;;14.40;89.20;;;;;;5053722;28;20194;-65
2022/12/27 12:15:47;;;;;;;0.40;0.40;;;14.50;89.60;;;;;;5052533;28;20235;-65
2022/12/27 12:18:54;;;;;;;0.40;0.40;;;14.50;89.50;;;;;;5052261;28;20647;-65
2022/12/27 12:21:55;;;;;;;0.40;0.40;;;14.50;89.30;;;;;;5052520;28;20259;-65
2022/12/27 12:25:17;;;;;;;0.40;0.40;;;14.50;89.30;;;;;;5052162;28;20228;-65
2022/12/27 12:28:39;;;;;;;0.40;0.40;;;14.50;89.40;;;;;;5052658;28;20522;-65
2022/12/27 12:32:16;;;;;;;0.40;0.40;;;14.50;88.80;;;;;;5052353;28;20586;-65
2022/12/27 12:35:31;;;;;;;0.70;0.70;;;14.40;88.80;;;;;;5085365;23;20569;-70
2022/12/27 12:38:22;;;;;;;0.40;0.40;;;14.40;88.60;;;;;;5074260;28;20716;-70
2022/12/27 12:41:46;;;;;;;0.40;0.40;;;14.40;89.40;;;;;;5075071;28;20283;-70
2022/12/27 12:45:10;;;;;;;0.40;0.40;;;14.50;88.90;;;;;;5075331;28;20243;-69
2022/12/27 12:48:18;;;;;;;0.40;0.40;;;14.50;89.20;;;;;;5051813;28;20692;-70
2022/12/27 12:51:30;;;;;;;0.40;0.40;;;14.50;88.80;;;;;;5073346;28;20704;-69
2022/12/27 12:54:37;;;;;;;0.40;0.40;;;14.50;88.70;;;;;;5073460;28;20446;-69
2022/12/27 12:57:39;;;;;;;0.40;0.40;;;14.50;89.10;;;;;;5075216;28;20423;-70
2022/12/27 13:00:46;;;;;;;0.40;0.40;;;14.60;89.10;;;;;;5073650;28;20279;-70
2022/12/27 13:03:56;;;;;;;0.40;0.40;;;14.60;88.80;;;;;;5073704;28;20201;-71
2022/12/27 13:07:16;;;;;;;0.40;0.40;;;14.60;88.80;;;;;;5077727;28;20200;-70
2022/12/27 13:10:33;;;;;;;0.40;0.40;;;14.60;88.80;;;;;;5078758;28;20246;-70
2022/12/27 13:13:29;;;;;;;0.50;0.50;;;14.60;88.50;;;;;;5077989;28;20224;-70
2022/12/27 13:16:28;;;;;;;0.40;0.40;;;14.50;88.50;;;;;;5077977;28;20609;-69
2022/12/27 13:19:37;;;;;;;0.40;0.40;;;14.50;88.60;;;;;;5078214;28;20204;-69
2022/12/27 13:22:38;;;;;;;0.40;0.40;;;14.60;88.70;;;;;;5077426;28;20246;-70
2022/12/27 13:25:37;;;;;;;0.40;0.40;;;14.60;88.60;;;;;;5077650;28;20295;-69
2022/12/27 13:28:35;;;;;;;0.40;0.40;;;14.50;88.40;;;;;;5077500;28;20200;-70
2022/12/27 13:31:32;;;;;;;0.40;0.40;;;14.60;88.60;;;;;;5076484;28;21084;-72
2022/12/27 13:34:33;;;;;;;0.40;0.40;;;14.50;88.90;;;;;;5076982;28;20321;-71
2022/12/27 13:37:35;;;;;;;0.40;0.40;;;14.50;88.40;;;;;;5077226;28;20695;-70
2022/12/27 13:40:40;;;;;;;0.40;0.40;;;14.50;88.50;;;;;;5077805;28;20283;-71
2022/12/27 13:44:07;;;;;;;0.40;0.40;;;14.50;88.40;;;;;;5078059;28;20224;-69
2022/12/27 13:47:28;;;;;;;0.40;0.40;;;14.50;88.60;;;;;;5075928;28;20744;-71
2022/12/27 13:50:32;;;;;;;0.40;0.40;;;14.50;88.50;;;;;;5076490;28;20303;-71
2022/12/27 13:53:49;;;;;;;0.40;0.40;;;14.50;88.40;;;;;;5078056;28;20235;-70
2022/12/27 13:56:46;;;;;;;0.40;0.40;;;14.50;89.00;;;;;;5077112;28;20215;-70
2022/12/27 14:00:00;;;;;;;0.40;0.40;;;14.50;88.90;;;;;;5076572;28;20200;-70
2022/12/27 14:03:11;;;;;;;0.40;0.40;;;14.50;89.10;;;;;;5076552;28;20219;-71
2022/12/27 14:06:29;;;;;;;0.40;0.40;;;14.50;88.90;;;;;;5076881;28;20291;-71
2022/12/27 14:09:34;;;;;;;0.40;0.40;;;14.50;89.30;;;;;;5076509;28;20997;-70
2022/12/27 14:12:52;;;;;;;0.40;0.40;;;14.50;89.20;;;;;;5076341;28;20649;-70
2022/12/27 14:16:28;;;;;;;0.40;0.40;;;14.60;89.20;;;;;;5076531;28;20267;-71
2022/12/27 14:19:38;;;;;;;0.40;0.40;;;14.60;89.00;;;;;;5077548;28;20697;-70
2022/12/27 14:22:44;;;;;;;0.40;0.40;;;14.70;89.10;;;;;;5075892;28;20271;-71
2022/12/27 14:26:09;;;;;;;0.40;0.40;;;14.60;88.90;;;;;;5076886;28;20654;-71
2022/12/27 14:29:37;;;;;;;0.40;0.40;;;14.60;88.80;;;;;;5076662;28;20204;-70
2022/12/27 14:32:57;;;;;;;0.40;0.40;;;14.60;88.10;;;;;;5076611;28;20274;-69
2022/12/27 14:36:11;;;;;;;0.40;0.40;;;14.70;88.80;;;;;;5077157;28;20311;-71
2022/12/27 14:39:27;;;;;;;0.40;0.40;;;14.60;88.80;;;;;;5076111;28;20228;-71
2022/12/27 14:42:41;;;;;;;0.40;0.40;;;14.60;88.20;;;;;;5075773;28;20650;-70
2022/12/27 14:46:12;;;;;;;0.40;0.40;;;14.60;88.40;;;;;;5077285;28;20217;-70
2022/12/27 14:49:48;;;;;;;0.40;0.40;;;14.60;88.50;;;;;;5075753;28;20197;-71
2022/12/27 14:53:10;;;;;;;0.40;0.40;;;14.70;88.60;;;;;;5076727;28;20277;-71
2022/12/27 14:56:12;;;;;;;0.40;0.40;;;14.60;88.80;;;;;;5076453;28;20577;-69
2022/12/27 14:59:20;;;;;;;0.40;0.40;;;14.60;88.50;;;;;;5076576;28;20280;-70
2022/12/27 15:02:28;;;;;;;0.40;0.40;;;14.60;88.90;;;;;;5075443;28;20228;-69
2022/12/27 15:05:33;;;;;;;0.40;0.40;;;14.60;88.40;;;;;;5076728;28;20303;-71
2022/12/27 15:08:41;;;;;;;0.40;0.40;;;14.60;88.50;;;;;;5075372;28;20204;-71
2022/12/27 15:11:43;;;;;;;0.40;0.40;;;14.60;88.70;;;;;;5076060;28;20197;-69
2022/12/27 15:14:45;;;;;;;0.60;0.60;;;14.50;88.70;;;;;;5074819;28;20212;-71
2022/12/27 15:17:51;;;;;;;0.40;0.40;;;14.50;88.70;;;;;;5075375;28;20204;-71
2022/12/27 15:21:14;;;;;;;0.40;0.40;;;14.50;88.50;;;;;;5076132;28;20197;-71
2022/12/27 15:24:13;;;;;;;0.40;0.40;;;14.50;88.50;;;;;;5075417;28;20463;-70
2022/12/27 15:27:10;;;;;;;0.40;0.40;;;14.50;89.40;;;;;;5074777;28;20207;-70
2022/12/27 15:30:18;;;;;;;0.40;0.40;;;14.50;89.20;;;;;;5074631;28;20676;-71
2022/12/27 15:33:18;;;;;;;0.40;0.40;;;14.50;88.90;;;;;;5075649;28;20188;-69
2022/12/27 15:36:11;;;;;;;0.40;0.40;;;14.50;89.00;;;;;;5074710;28;20299;-71
2022/12/27 15:38:59;;;;;;;0.40;0.40;;;14.50;89.10;;;;;;5075249;28;20423;-71
2022/12/27 15:42:00;;;;;;;0.40;0.40;;;14.50;89.20;;;;;;5075009;28;20774;-69
2022/12/27 15:45:00;;;;;;;0.40;0.40;;;14.50;89.00;;;;;;5075820;28;20235;-70
2022/12/27 15:48:07;;;;;;;0.40;0.40;;;14.50;88.90;;;;;;5074701;28;20707;-69
2022/12/27 15:51:05;;;;;;;0.40;0.40;;;14.50;88.80;;;;;;5075225;28;20450;-70
2022/12/27 15:54:10;;;;;;;0.40;0.40;;;14.50;92.90;;;;;;5073538;28;20197;-70
2022/12/27 15:57:19;;;;;;;0.40;0.40;;;14.50;88.90;;;;;;5073065;28;20208;-68
2022/12/27 16:00:26;;;;;;;0.40;0.40;;;14.50;88.90;;;;;;5073985;28;20203;-70
2022/12/27 16:03:34;;;;;;;0.40;0.40;;;14.50;88.90;;;;;;5073552;28;20971;-70
2022/12/27 16:06:51;;;;;;;0.40;0.40;;;14.50;88.70;;;;;;5075223;28;20195;-70
2022/12/27 16:09:39;;;;;;;0.40;0.40;;;14.40;88.80;;;;;;5074210;28;20262;-71
2022/12/27 16:12:39;;;;;;;0.40;0.40;;;14.50;88.80;;;;;;5074471;28;20297;-71
2022/12/27 16:15:49;;;;;;;0.40;0.40;;;14.40;88.60;;;;;;5074624;28;20585;-71
2022/12/27 16:19:05;;;;;;;0.40;0.40;;;14.40;88.50;;;;;;5075575;28;20585;-70
2022/12/27 16:21:54;;;;;;;0.40;0.40;;;14.40;88.50;;;;;;5075621;28;20204;-71
2022/12/27 16:24:42;;;;;;;0.40;0.40;;;14.40;88.80;;;;;;5073617;28;21020;-69
2022/12/27 16:27:32;;;;;;;0.43;0.43;;;14.40;88.80;;;;;;5073732;28;20653;-70
2022/12/27 16:30:34;;;;;;;0.40;0.40;;;14.40;88.80;;;;;;5074177;28;20204;-69
2022/12/27 16:33:36;;;;;;;0.40;0.40;;;14.30;88.50;;;;;;5074033;28;20208;-70
2022/12/27 16:36:28;;;;;;;0.40;0.40;;;14.30;88.90;;;;;;5075516;28;20270;-70
2022/12/27 16:39:30;;;;;;;0.40;0.40;;;14.30;88.80;;;;;;5073990;28;20851;-69
2022/12/27 16:42:26;;;;;;;0.40;0.40;;;14.30;88.70;;;;;;5073483;28;20750;-70
2022/12/27 16:45:30;;;;;;;0.40;0.40;;;14.30;88.80;;;;;;5072132;28;20327;-69
2022/12/27 16:48:24;;;;;;;0.40;0.40;;;14.30;89.00;;;;;;5072341;28;20287;-69
2022/12/27 16:51:22;;;;;;;0.40;0.40;;;14.40;89.30;;;;;;5074494;28;20196;-69